Time;durP1;ratioP1;P1;durP2;ratioP2;P2;SDS_P1;SDS_P2;PMS_P1;PMS_P2;Temp;Humidity;BMP_temperature;BMP_pressure;BME280_temperature;BME280_humidity;BME280_pressure;Samples;Min_cycle;Max_cycle;Signal;HPM_P1;HPM_P2
2022/08/21 00:01:53;;;;;;;40.80;29.83;;;19.50;99.90;;;;;;5049060;28;20052;-57
2022/08/21 00:04:19;;;;;;;46.33;30.85;;;19.50;99.90;;;;;;5050208;28;20024;-57
2022/08/21 00:06:44;;;;;;;45.40;31.00;;;19.50;99.90;;;;;;5052759;28;20025;-57
2022/08/21 00:09:10;;;;;;;44.50;31.10;;;19.50;99.90;;;;;;5052461;28;20098;-57
2022/08/21 00:11:38;;;;;;;38.63;28.23;;;19.60;99.90;;;;;;5052260;28;20095;-58
2022/08/21 00:14:06;;;;;;;43.90;29.70;;;19.60;99.90;;;;;;5052433;28;20071;-58
2022/08/21 00:16:32;;;;;;;45.90;30.67;;;19.60;99.90;;;;;;5052438;28;20543;-57
2022/08/21 00:18:58;;;;;;;40.65;27.65;;;19.50;99.90;;;;;;5052234;28;20120;-57
2022/08/21 00:21:25;;;;;;;43.38;29.60;;;19.60;99.90;;;;;;5052282;28;20059;-57
2022/08/21 00:23:50;;;;;;;41.10;27.65;;;19.60;99.90;;;;;;5052175;28;20052;-57
2022/08/21 00:26:16;;;;;;;40.60;28.35;;;19.60;99.90;;;;;;5051858;28;20036;-57
2022/08/21 00:28:42;;;;;;;39.85;28.20;;;19.60;99.90;;;;;;5052023;28;20095;-58
2022/08/21 00:31:08;;;;;;;37.92;26.05;;;19.60;99.90;;;;;;5052246;28;20025;-57
2022/08/21 00:33:34;;;;;;;36.53;25.23;;;19.60;99.90;;;;;;5043342;28;20088;-57
2022/08/21 00:36:00;;;;;;;39.95;25.58;;;19.70;99.90;;;;;;5030340;28;20033;-58
2022/08/21 00:38:26;;;;;;;40.42;24.98;;;19.60;99.90;;;;;;5011168;28;20119;-58
2022/08/21 00:40:56;;;;;;;40.80;27.20;;;19.60;99.90;;;;;;5014519;28;20042;-57
2022/08/21 00:43:27;;;;;;;39.75;26.13;;;19.60;99.90;;;;;;5012116;28;20101;-58
2022/08/21 00:45:53;;;;;;;46.53;26.70;;;19.60;99.90;;;;;;5012236;28;20034;-58
2022/08/21 00:48:19;;;;;;;38.72;23.98;;;19.60;99.90;;;;;;5027259;28;20037;-58
2022/08/21 00:51:08;;;;;;;37.08;24.08;;;19.60;99.90;;;;;;5012319;28;20026;-58
2022/08/21 00:53:37;;;;;;;33.10;22.23;;;19.60;99.90;;;;;;5012047;28;20056;-57
2022/08/21 00:56:06;;;;;;;31.80;21.98;;;19.60;99.90;;;;;;5012100;28;20030;-57
2022/08/21 00:58:35;;;;;;;38.78;23.60;;;19.70;99.90;;;;;;5011615;28;20087;-58
2022/08/21 01:01:04;;;;;;;30.70;21.27;;;19.70;99.90;;;;;;5011822;28;20109;-57
2022/08/21 01:03:30;;;;;;;33.28;21.30;;;19.70;99.90;;;;;;5011671;28;20076;-57
2022/08/21 01:05:55;;;;;;;29.30;19.67;;;19.70;99.90;;;;;;5012120;28;20026;-57
2022/08/21 01:08:23;;;;;;;33.65;21.65;;;19.70;99.90;;;;;;5011662;28;20064;-58
2022/08/21 01:10:49;;;;;;;31.73;21.30;;;19.70;99.90;;;;;;5011610;28;20080;-58
2022/08/21 01:13:19;;;;;;;27.77;20.45;;;19.70;99.90;;;;;;5011472;28;20140;-57
2022/08/21 01:15:49;;;;;;;28.15;19.98;;;19.70;99.90;;;;;;5011273;28;20164;-57
2022/08/21 01:18:18;;;;;;;28.00;20.50;;;19.70;99.90;;;;;;5011169;28;20029;-58
2022/08/21 01:21:01;;;;;;;27.23;19.13;;;19.70;99.90;;;;;;5011520;28;20026;-58
2022/08/21 01:23:27;;;;;;;28.30;19.52;;;19.80;99.90;;;;;;5011541;28;20121;-58
2022/08/21 01:25:53;;;;;;;29.42;19.65;;;19.70;99.90;;;;;;5011371;28;20168;-58
2022/08/21 01:28:21;;;;;;;32.25;20.33;;;19.80;99.90;;;;;;5017000;28;20049;-58
2022/08/21 01:30:47;;;;;;;26.63;18.83;;;19.70;99.90;;;;;;5031005;28;20026;-58
2022/08/21 01:33:13;;;;;;;28.92;21.00;;;19.80;99.90;;;;;;5031228;28;20022;-58
2022/08/21 01:35:39;;;;;;;30.50;20.45;;;19.70;99.90;;;;;;5031219;28;20036;-59
2022/08/21 01:38:04;;;;;;;29.20;18.73;;;19.70;99.90;;;;;;5030741;28;20040;-58
2022/08/21 01:40:30;;;;;;;33.08;21.13;;;19.70;99.90;;;;;;5030929;28;20401;-58
2022/08/21 01:42:56;;;;;;;30.58;20.48;;;19.80;99.90;;;;;;5030633;28;20137;-58
2022/08/21 01:45:22;;;;;;;28.70;19.35;;;19.70;99.90;;;;;;5030667;28;20472;-58
2022/08/21 01:47:47;;;;;;;26.98;19.52;;;19.70;99.90;;;;;;5030907;28;20029;-57
2022/08/21 01:50:17;;;;;;;23.75;18.10;;;19.70;99.90;;;;;;5030725;28;20529;-58
2022/08/21 01:52:43;;;;;;;30.40;17.75;;;19.70;99.90;;;;;;5031125;28;20040;-58
2022/08/21 01:55:11;;;;;;;22.60;17.63;;;19.70;99.90;;;;;;5030593;28;20114;-58
2022/08/21 01:57:37;;;;;;;24.92;17.73;;;19.70;99.90;;;;;;5030561;28;20412;-58
2022/08/21 02:00:11;;;;;;;25.10;17.42;;;19.70;99.90;;;;;;5030512;28;20033;-58
2022/08/21 02:02:38;;;;;;;23.02;16.08;;;19.70;99.90;;;;;;5030476;28;20060;-58
2022/08/21 02:05:04;;;;;;;22.67;14.90;;;19.70;99.90;;;;;;5030510;28;20198;-57
2022/08/21 02:07:48;;;;;;;22.90;15.40;;;19.70;99.90;;;;;;5030244;28;20071;-58
2022/08/21 02:10:26;;;;;;;20.55;15.05;;;19.70;99.90;;;;;;5028848;28;20021;-58
2022/08/21 02:12:52;;;;;;;;;;;19.70;99.90;;;;;;5030771;28;20030;-58
2022/08/21 02:15:18;;;;;;;20.23;13.63;;;19.70;99.90;;;;;;5030394;28;19909;-58
2022/08/21 02:17:53;;;;;;;22.73;13.60;;;19.70;99.90;;;;;;5030204;28;20022;-58
2022/08/21 02:20:31;;;;;;;25.08;13.60;;;19.60;99.90;;;;;;5030201;28;20073;-58
2022/08/21 02:22:57;;;;;;;20.70;13.55;;;19.60;99.90;;;;;;5029931;28;20033;-58
2022/08/21 02:25:24;;;;;;;20.88;13.43;;;19.60;99.90;;;;;;5029961;28;20033;-58
2022/08/21 02:27:51;;;;;;;24.25;16.10;;;19.60;99.90;;;;;;5029146;28;20029;-58
2022/08/21 02:30:32;;;;;;;24.58;16.45;;;19.60;99.90;;;;;;5029914;28;20036;-58
2022/08/21 02:32:59;;;;;;;22.35;16.13;;;19.60;99.90;;;;;;5029959;28;20047;-58
2022/08/21 02:35:24;;;;;;;25.20;16.92;;;19.60;99.90;;;;;;5029866;28;20025;-58
2022/08/21 02:37:54;;;;;;;25.08;17.23;;;19.60;99.90;;;;;;5029725;28;20045;-57
2022/08/21 02:40:22;;;;;;;23.35;16.75;;;19.60;99.90;;;;;;5029847;28;20033;-58
2022/08/21 02:42:48;;;;;;;23.45;15.70;;;19.60;99.90;;;;;;5029994;28;20026;-58
2022/08/21 02:45:16;;;;;;;24.00;16.08;;;19.60;99.90;;;;;;5029795;28;20522;-58
2022/08/21 02:47:52;;;;;;;27.77;17.20;;;19.60;99.90;;;;;;5029553;28;20488;-58
2022/08/21 02:50:26;;;;;;;28.05;15.18;;;19.60;99.90;;;;;;5029769;28;20057;-58
2022/08/21 02:52:52;;;;;;;24.67;15.45;;;19.60;99.90;;;;;;5030014;28;20207;-58
2022/08/21 02:55:20;;;;;;;20.38;14.45;;;19.60;99.90;;;;;;5029732;28;20049;-58
2022/08/21 02:57:46;;;;;;;23.60;14.88;;;19.60;99.90;;;;;;5029592;28;20029;-58
2022/08/21 03:00:13;;;;;;;23.30;14.30;;;19.70;99.90;;;;;;5029590;28;20179;-58
2022/08/21 03:02:39;;;;;;;18.40;13.43;;;19.70;99.90;;;;;;5029576;28;20021;-58
2022/08/21 03:05:06;;;;;;;21.70;12.40;;;19.70;99.90;;;;;;5029774;28;20037;-57
2022/08/21 03:07:32;;;;;;;17.67;12.55;;;19.80;99.90;;;;;;5029538;28;20029;-58
2022/08/21 03:09:58;;;;;;;20.58;12.65;;;19.80;99.90;;;;;;5029409;28;20023;-58
2022/08/21 03:12:24;;;;;;;21.63;13.43;;;19.80;99.90;;;;;;5029464;28;20040;-60
2022/08/21 03:14:50;;;;;;;18.75;12.68;;;19.80;99.90;;;;;;5027983;28;20485;-59
2022/08/21 03:17:15;;;;;;;21.30;13.40;;;19.80;99.90;;;;;;5027993;28;20389;-56
2022/08/21 03:19:41;;;;;;;19.55;14.40;;;19.80;99.90;;;;;;5029453;28;20457;-59
2022/08/21 03:22:07;;;;;;;18.02;13.00;;;19.70;99.90;;;;;;5029651;28;20108;-59
2022/08/21 03:24:33;;;;;;;17.17;12.25;;;19.80;99.90;;;;;;5029586;28;20400;-56
2022/08/21 03:26:59;;;;;;;14.57;11.40;;;19.80;99.90;;;;;;5029500;28;20017;-59
2022/08/21 03:29:25;;;;;;;20.98;13.45;;;19.80;99.90;;;;;;5029131;28;20069;-56
2022/08/21 03:31:53;;;;;;;20.38;11.80;;;19.80;99.90;;;;;;5029319;28;20029;-58
2022/08/21 03:34:20;;;;;;;20.30;11.57;;;19.80;99.90;;;;;;5029276;28;20045;-58
2022/08/21 03:36:46;;;;;;;15.87;10.37;;;19.80;99.90;;;;;;5029482;28;20026;-58
2022/08/21 03:39:11;;;;;;;18.27;12.02;;;19.80;99.90;;;;;;5031994;28;20596;-59
2022/08/21 03:41:37;;;;;;;18.33;11.85;;;19.80;99.90;;;;;;5032857;28;20025;-59
2022/08/21 03:44:03;;;;;;;20.42;12.18;;;19.80;99.90;;;;;;5032837;28;20038;-58
2022/08/21 03:46:28;;;;;;;15.88;12.25;;;19.80;99.90;;;;;;5032912;28;20512;-58
2022/08/21 03:48:55;;;;;;;16.35;10.82;;;19.80;99.90;;;;;;5032978;28;20108;-58
2022/08/21 03:51:22;;;;;;;20.02;11.63;;;19.80;99.90;;;;;;5032902;28;20447;-58
2022/08/21 03:53:47;;;;;;;17.33;12.75;;;19.90;99.90;;;;;;5032845;28;20037;-58
2022/08/21 03:56:13;;;;;;;21.95;13.13;;;19.80;99.90;;;;;;5032595;28;20545;-57
2022/08/21 03:58:39;;;;;;;21.13;12.77;;;19.90;99.90;;;;;;5032536;28;20041;-59
2022/08/21 04:01:05;;;;;;;21.48;11.65;;;19.90;99.90;;;;;;5033066;28;20033;-58
2022/08/21 04:03:31;;;;;;;19.60;13.57;;;19.90;99.90;;;;;;5032883;28;20024;-58
2022/08/21 04:05:57;;;;;;;18.75;12.70;;;19.90;99.90;;;;;;5032715;28;20384;-58
2022/08/21 04:08:23;;;;;;;19.35;12.57;;;19.90;99.90;;;;;;5032448;28;20072;-58
2022/08/21 04:10:52;;;;;;;23.95;12.48;;;19.90;99.90;;;;;;5032415;28;20032;-58
2022/08/21 04:13:18;;;;;;;24.48;13.07;;;19.90;99.90;;;;;;5032413;28;20496;-58
2022/08/21 04:15:43;;;;;;;24.17;14.27;;;19.90;99.90;;;;;;5032416;28;20032;-58
2022/08/21 04:18:10;;;;;;;24.70;14.00;;;19.90;99.90;;;;;;5032380;28;20083;-58
2022/08/21 04:20:35;;;;;;;22.50;14.75;;;20.00;99.90;;;;;;5032637;28;20361;-58
2022/08/21 04:23:02;;;;;;;19.33;13.80;;;19.90;99.90;;;;;;5032305;28;20492;-58
2022/08/21 04:25:28;;;;;;;22.65;13.82;;;19.90;99.90;;;;;;5032258;28;20105;-58
2022/08/21 04:27:54;;;;;;;21.77;13.85;;;19.90;99.90;;;;;;5031871;28;20421;-58
2022/08/21 04:30:21;;;;;;;24.35;15.85;;;19.90;99.90;;;;;;5032200;28;20040;-58
2022/08/21 04:32:48;;;;;;;23.70;15.75;;;19.90;99.90;;;;;;5032236;28;20480;-59
2022/08/21 04:35:16;;;;;;;29.05;16.75;;;19.90;99.90;;;;;;5032127;28;20503;-58
2022/08/21 04:37:42;;;;;;;24.67;15.73;;;19.80;99.90;;;;;;5032018;28;20041;-59
2022/08/21 04:40:10;;;;;;;23.17;15.93;;;19.90;99.90;;;;;;5031896;28;20042;-58
2022/08/21 04:42:46;;;;;;;27.10;16.33;;;19.80;99.90;;;;;;5032160;28;20029;-58
2022/08/21 04:45:23;;;;;;;24.33;15.05;;;19.80;99.90;;;;;;5032149;28;20021;-58
2022/08/21 04:47:51;;;;;;;26.85;16.00;;;19.80;99.90;;;;;;5031922;28;20025;-57
2022/08/21 04:50:17;;;;;;;25.13;16.00;;;19.80;99.90;;;;;;5031115;28;20029;-58
2022/08/21 04:52:43;;;;;;;28.98;16.75;;;19.80;99.90;;;;;;5031634;28;20029;-57
2022/08/21 04:55:09;;;;;;;33.40;17.40;;;19.80;99.90;;;;;;5031889;28;20032;-57
2022/08/21 04:57:35;;;;;;;29.85;16.98;;;19.80;99.90;;;;;;5031576;28;20022;-57
2022/08/21 05:00:03;;;;;;;27.67;17.25;;;19.80;99.90;;;;;;5031588;28;20087;-58
2022/08/21 05:02:32;;;;;;;30.88;17.00;;;19.80;99.90;;;;;;5031422;28;20026;-58
2022/08/21 05:04:59;;;;;;;27.90;18.65;;;19.70;99.90;;;;;;5031479;28;20040;-58
2022/08/21 05:07:28;;;;;;;29.40;18.50;;;19.70;99.90;;;;;;5031413;28;20113;-58
2022/08/21 05:09:54;;;;;;;25.90;17.55;;;19.80;99.90;;;;;;5031598;28;20442;-58
2022/08/21 05:12:21;;;;;;;27.23;19.00;;;19.70;99.90;;;;;;5031255;28;20033;-58
2022/08/21 05:14:46;;;;;;;;;;;19.80;99.90;;;;;;5031904;28;20037;-58
2022/08/21 05:17:13;;;;;;;31.30;19.52;;;19.80;99.90;;;;;;5031295;28;19916;-58
2022/08/21 05:19:39;;;;;;;33.03;20.08;;;19.90;99.90;;;;;;5031194;28;20428;-58
2022/08/21 05:22:05;;;;;;;34.05;19.05;;;19.90;99.90;;;;;;5031093;28;20025;-58
2022/08/21 05:24:31;;;;;;;30.45;19.48;;;19.90;99.90;;;;;;5031217;28;20485;-59
2022/08/21 05:26:58;;;;;;;32.13;19.23;;;19.90;99.90;;;;;;5031528;28;20030;-56
2022/08/21 05:29:24;;;;;;;31.83;22.03;;;19.90;99.90;;;;;;5031192;28;20053;-55
2022/08/21 05:31:50;;;;;;;31.75;20.80;;;19.80;99.90;;;;;;5031418;28;20084;-58
2022/08/21 05:34:21;;;;;;;33.92;19.75;;;19.80;99.90;;;;;;5031023;28;20033;-58
2022/08/21 05:36:47;;;;;;;34.50;23.63;;;19.80;99.90;;;;;;5031067;28;20029;-56
2022/08/21 05:39:13;;;;;;;42.70;24.15;;;19.80;99.90;;;;;;5030798;28;20441;-56
2022/08/21 05:41:39;;;;;;;37.35;23.25;;;19.80;99.90;;;;;;5031028;28;20033;-56
2022/08/21 05:44:04;;;;;;;28.80;16.48;;;19.80;99.90;;;;;;5030813;28;20378;-57
2022/08/21 05:46:30;;;;;;;18.48;11.88;;;19.70;99.90;;;;;;5030869;28;20128;-57
2022/08/21 05:48:56;;;;;;;18.80;11.00;;;19.60;99.90;;;;;;5030646;28;20113;-57
2022/08/21 05:51:21;;;;;;;11.50;7.72;;;19.60;99.90;;;;;;5031242;28;20021;-58
2022/08/21 05:53:48;;;;;;;11.82;6.93;;;19.50;99.90;;;;;;5030803;28;20041;-55
2022/08/21 05:56:14;;;;;;;10.13;6.22;;;19.40;99.90;;;;;;5012869;28;20030;-56
2022/08/21 05:58:40;;;;;;;10.63;5.33;;;19.30;99.90;;;;;;5030624;28;20037;-56
2022/08/21 06:01:08;;;;;;;10.10;4.45;;;19.20;99.90;;;;;;5030187;28;20033;-56
2022/08/21 06:03:36;;;;;;;8.57;5.50;;;19.20;99.90;;;;;;5030120;28;20520;-57
2022/08/21 06:06:02;;;;;;;8.45;4.70;;;19.20;99.90;;;;;;5030415;28;20140;-56
2022/08/21 06:08:29;;;;;;;6.95;4.03;;;19.20;99.90;;;;;;5030582;28;20030;-56
2022/08/21 06:10:57;;;;;;;6.95;4.30;;;19.10;99.90;;;;;;5030669;28;20034;-58
2022/08/21 06:13:23;;;;;;;10.38;4.57;;;19.10;99.90;;;;;;5030373;28;20033;-56
2022/08/21 06:15:50;;;;;;;14.13;4.90;;;19.10;99.90;;;;;;5030338;28;20051;-56
2022/08/21 06:18:16;;;;;;;15.65;5.32;;;19.00;99.90;;;;;;5030028;28;20028;-56
2022/08/21 06:20:42;;;;;;;11.32;4.65;;;19.00;99.90;;;;;;5030528;28;20397;-56
2022/08/21 06:23:08;;;;;;;8.02;4.05;;;19.00;99.90;;;;;;5030511;28;20025;-56
2022/08/21 06:25:34;;;;;;;7.38;2.90;;;19.10;99.90;;;;;;5030289;28;20098;-57
2022/08/21 06:28:06;;;;;;;10.35;3.00;;;19.00;99.90;;;;;;5030121;28;20056;-57
2022/08/21 06:30:32;;;;;;;7.40;3.50;;;19.00;99.90;;;;;;5030109;28;20026;-57
2022/08/21 06:32:58;;;;;;;5.78;3.05;;;19.00;99.90;;;;;;5030279;28;20167;-57
2022/08/21 06:35:28;;;;;;;5.20;2.70;;;19.00;99.90;;;;;;5029969;28;20544;-58
2022/08/21 06:37:54;;;;;;;5.30;1.90;;;18.90;99.90;;;;;;5029913;28;20033;-57
2022/08/21 06:40:20;;;;;;;4.28;1.92;;;19.00;99.90;;;;;;5029822;28;20030;-58
2022/08/21 06:42:46;;;;;;;4.45;2.65;;;19.00;99.90;;;;;;5028406;28;20036;-56
2022/08/21 06:45:12;;;;;;;3.38;1.90;;;18.90;99.90;;;;;;5029900;28;20057;-56
2022/08/21 06:47:38;;;;;;;4.30;2.20;;;19.00;99.90;;;;;;5029767;28;20732;-57
2022/08/21 06:50:07;;;;;;;5.57;2.30;;;18.90;99.90;;;;;;5029924;28;20029;-57
2022/08/21 06:52:33;;;;;;;2.83;1.05;;;18.90;99.90;;;;;;5029985;28;20048;-57
2022/08/21 06:54:59;;;;;;;3.80;1.13;;;18.90;99.90;;;;;;5029974;28;20025;-58
2022/08/21 06:57:25;;;;;;;4.15;1.40;;;18.90;99.90;;;;;;5029591;28;20366;-56
2022/08/21 06:59:51;;;;;;;3.13;1.23;;;18.80;99.90;;;;;;5029491;28;20044;-56
2022/08/21 07:02:17;;;;;;;3.15;1.38;;;18.80;99.90;;;;;;5029676;28;20021;-57
2022/08/21 07:04:43;;;;;;;3.05;1.20;;;18.80;99.90;;;;;;5029711;28;20040;-56
2022/08/21 07:07:12;;;;;;;2.92;0.90;;;18.80;99.90;;;;;;5029613;28;20032;-57
2022/08/21 07:09:38;;;;;;;1.63;0.98;;;18.80;99.90;;;;;;5029693;28;20033;-57
2022/08/21 07:12:04;;;;;;;3.72;1.08;;;18.70;99.90;;;;;;5029513;28;20025;-58
2022/08/21 07:14:30;;;;;;;1.58;0.50;;;18.80;99.90;;;;;;5015027;28;20587;-58
2022/08/21 07:16:55;;;;;;;3.97;0.90;;;18.80;99.90;;;;;;5033477;28;20079;-59
2022/08/21 07:19:21;;;;;;;1.45;0.60;;;18.80;99.90;;;;;;5033495;28;20037;-58
2022/08/21 07:21:47;;;;;;;8.52;1.23;;;18.80;99.90;;;;;;5033514;28;20032;-58
2022/08/21 07:24:13;;;;;;;1.40;0.80;;;18.80;99.90;;;;;;5033563;28;20406;-57
2022/08/21 07:26:40;;;;;;;1.27;0.60;;;18.90;99.90;;;;;;5033284;28;20056;-59
2022/08/21 07:29:06;;;;;;;1.27;0.50;;;18.90;99.90;;;;;;5033128;28;20096;-58
2022/08/21 07:31:32;;;;;;;0.75;0.40;;;18.90;99.90;;;;;;5033553;28;20052;-58
2022/08/21 07:33:58;;;;;;;1.50;0.80;;;18.80;99.90;;;;;;5033546;28;20480;-57
2022/08/21 07:36:23;;;;;;;1.20;0.47;;;18.80;99.90;;;;;;5033377;28;20086;-58
2022/08/21 07:38:52;;;;;;;2.45;0.50;;;18.80;99.90;;;;;;5033088;28;20495;-59
2022/08/21 07:41:21;;;;;;;2.97;0.93;;;18.90;99.90;;;;;;5033450;28;20053;-58
2022/08/21 07:43:47;;;;;;;2.65;0.80;;;18.90;99.90;;;;;;5033205;28;20073;-59
2022/08/21 07:46:13;;;;;;;2.53;1.08;;;19.00;99.90;;;;;;5033080;28;20056;-56
2022/08/21 07:48:39;;;;;;;2.80;1.00;;;18.90;99.90;;;;;;5033218;28;20061;-59
2022/08/21 07:51:08;;;;;;;1.25;0.68;;;18.90;99.90;;;;;;5033033;28;20036;-56
2022/08/21 07:53:35;;;;;;;2.20;0.75;;;19.00;99.90;;;;;;5033035;28;20610;-58
2022/08/21 07:56:02;;;;;;;1.90;0.65;;;19.00;99.90;;;;;;5032652;28;20108;-59
2022/08/21 07:58:27;;;;;;;4.78;0.85;;;19.00;99.90;;;;;;5031236;28;20440;-58
2022/08/21 08:00:53;;;;;;;3.28;0.60;;;19.10;99.90;;;;;;5032897;28;20037;-58
2022/08/21 08:03:19;;;;;;;1.10;0.60;;;19.10;99.90;;;;;;5039686;28;20025;-58
2022/08/21 08:05:45;;;;;;;2.50;0.70;;;19.10;99.90;;;;;;5025362;28;20036;-58
2022/08/21 08:08:10;;;;;;;2.67;0.80;;;19.20;99.90;;;;;;5032605;28;20061;-58
2022/08/21 08:10:37;;;;;;;4.68;0.93;;;19.20;99.90;;;;;;5032447;28;20113;-58
2022/08/21 08:13:03;;;;;;;5.88;1.10;;;19.20;99.90;;;;;;5032742;28;20040;-58
2022/08/21 08:15:29;;;;;;;3.08;1.20;;;19.10;99.90;;;;;;5024510;28;20029;-59
2022/08/21 08:17:56;;;;;;;2.72;1.20;;;19.10;99.90;;;;;;5042307;28;20028;-58
2022/08/21 08:20:23;;;;;;;;;;;19.10;99.90;;;;;;5043326;28;20380;-57
2022/08/21 08:22:49;;;;;;;2.28;1.10;;;19.20;99.90;;;;;;5043290;28;19955;-57
2022/08/21 08:25:16;;;;;;;2.58;0.65;;;19.20;99.90;;;;;;5041218;28;20082;-58
2022/08/21 08:27:42;;;;;;;3.42;0.60;;;19.20;99.90;;;;;;5042403;28;20040;-58
2022/08/21 08:30:11;;;;;;;2.30;1.60;;;19.20;99.90;;;;;;5049167;28;20029;-57
2022/08/21 08:32:37;;;;;;;2.10;1.27;;;19.20;99.90;;;;;;5045814;28;20385;-58
2022/08/21 08:35:04;;;;;;;2.35;0.93;;;19.30;99.90;;;;;;5040365;28;20038;-58
2022/08/21 08:37:30;;;;;;;2.35;1.20;;;19.30;99.90;;;;;;5041809;28;20025;-58
2022/08/21 08:39:55;;;;;;;2.20;1.08;;;19.30;99.90;;;;;;5041402;28;20052;-58
2022/08/21 08:42:21;;;;;;;1.77;0.73;;;19.30;99.90;;;;;;5043365;28;20104;-58
2022/08/21 08:44:47;;;;;;;2.40;1.27;;;19.30;99.90;;;;;;5045850;28;20024;-58
2022/08/21 08:47:16;;;;;;;5.00;1.88;;;19.40;99.90;;;;;;5051666;28;20086;-58
2022/08/21 08:50:09;;;;;;;3.75;1.95;;;19.40;99.90;;;;;;5049312;28;20037;-58
2022/08/21 08:52:47;;;;;;;4.20;2.47;;;19.50;99.90;;;;;;5049402;28;20063;-58
2022/08/21 08:55:22;;;;;;;6.50;2.92;;;19.50;99.90;;;;;;5050365;28;20036;-58
2022/08/21 08:57:51;;;;;;;5.07;2.55;;;19.50;99.90;;;;;;5051537;28;20032;-59
2022/08/21 09:00:21;;;;;;;5.10;2.95;;;19.50;99.90;;;;;;5050840;28;20040;-58
2022/08/21 09:02:48;;;;;;;5.97;2.47;;;19.60;99.90;;;;;;5032442;28;20029;-58
2022/08/21 09:05:28;;;;;;;4.70;2.88;;;19.60;99.90;;;;;;5050822;28;20040;-58
2022/08/21 09:08:16;;;;;;;7.60;2.95;;;19.70;99.90;;;;;;5050778;28;20477;-58
2022/08/21 09:11:10;;;;;;;6.90;3.55;;;19.80;99.90;;;;;;5050632;28;20071;-58
2022/08/21 09:13:38;;;;;;;5.78;2.75;;;19.80;99.90;;;;;;5050574;28;20057;-57
2022/08/21 09:16:04;;;;;;;5.88;2.50;;;19.80;99.90;;;;;;5051051;28;20029;-58
2022/08/21 09:18:58;;;;;;;4.15;2.13;;;19.80;99.90;;;;;;5051749;22;20072;-89
2022/08/21 09:21:32;;;;;;;2.92;1.60;;;19.80;99.90;;;;;;5033912;28;20088;-88
2022/08/21 09:24:10;;;;;;;5.28;1.70;;;19.70;99.90;;;;;;5027998;28;20037;-89
2022/08/21 09:27:02;;;;;;;2.78;1.60;;;19.70;99.90;;;;;;5012809;28;20036;-89
2022/08/21 09:29:35;;;;;;;3.42;1.52;;;19.70;99.90;;;;;;5000497;28;20049;-90
2022/08/21 09:32:01;;;;;;;2.63;1.90;;;19.70;99.90;;;;;;5020476;28;20107;-92
2022/08/21 09:34:29;;;;;;;3.63;1.52;;;19.60;99.90;;;;;;5020607;28;20019;-89
2022/08/21 09:36:57;;;;;;;5.95;2.20;;;19.60;99.90;;;;;;5002015;28;20026;-91
2022/08/21 09:39:27;;;;;;;3.53;1.95;;;19.60;99.90;;;;;;5003783;28;20029;-89
2022/08/21 09:42:06;;;;;;;4.53;2.10;;;19.60;99.90;;;;;;5004053;28;20037;-90
2022/08/21 09:44:39;;;;;;;3.70;1.88;;;19.70;99.90;;;;;;5020693;28;20084;-89
2022/08/21 09:47:06;;;;;;;4.03;2.20;;;19.70;99.90;;;;;;5020452;28;20026;-91
2022/08/21 09:49:38;;;;;;;3.20;1.90;;;19.70;99.90;;;;;;5001662;28;20033;-89
2022/08/21 09:52:16;;;;;;;7.03;2.53;;;19.70;99.90;;;;;;5004458;28;20036;-89
2022/08/21 09:54:45;;;;;;;4.70;2.25;;;19.70;99.90;;;;;;5020847;28;20042;-89
2022/08/21 09:57:38;;;;;;;4.55;2.63;;;19.70;99.90;;;;;;5021019;28;20026;-89
2022/08/21 10:00:24;;;;;;;6.75;4.00;;;19.60;99.90;;;;;;5017629;28;20038;-93
2022/08/21 10:02:49;;;;;;;8.88;4.32;;;19.50;99.90;;;;;;5020112;28;20104;-90
2022/08/21 10:05:25;;;;;;;9.52;5.20;;;19.50;99.90;;;;;;5002552;28;20513;-89
2022/08/21 10:07:51;;;;;;;7.50;5.35;;;19.50;99.90;;;;;;5002706;28;20113;-92
2022/08/21 10:10:17;;;;;;;8.63;5.22;;;19.40;99.90;;;;;;5002061;28;20026;-90
2022/08/21 10:13:04;;;;;;;8.52;5.72;;;19.40;99.90;;;;;;5004327;28;20022;-89
2022/08/21 10:15:51;;;;;;;8.20;6.20;;;19.40;99.90;;;;;;5022610;28;20030;-89
2022/08/21 10:18:28;;;;;;;9.90;6.95;;;19.30;99.90;;;;;;5021494;28;20064;-91
2022/08/21 10:21:21;;;;;;;8.80;7.07;;;19.20;99.90;;;;;;5002566;28;20101;-90
2022/08/21 10:23:58;;;;;;;10.13;7.20;;;19.20;99.90;;;;;;5003958;28;20018;-89
2022/08/21 10:27:16;;;;;;;10.48;7.53;;;18.80;99.90;;;;;;5004279;28;20018;-88
2022/08/21 10:29:54;;;;;;;10.70;8.25;;;18.80;99.90;;;;;;4961920;28;20088;-90
2022/08/21 10:32:45;;;;;;;12.00;8.05;;;18.70;99.90;;;;;;5019749;28;20026;-90
2022/08/21 10:35:32;;;;;;;10.20;7.60;;;18.70;99.90;;;;;;5005913;28;20082;-90
2022/08/21 10:38:31;;;;;;;9.00;6.75;;;18.70;99.90;;;;;;5009176;28;20037;-91
2022/08/21 10:41:25;;;;;;;13.18;7.38;;;18.80;99.90;;;;;;5030934;28;20069;-91
2022/08/21 10:44:03;;;;;;;9.75;6.97;;;18.80;99.90;;;;;;5031362;28;20010;-90
2022/08/21 10:46:55;;;;;;;10.45;7.15;;;18.80;99.90;;;;;;5024510;28;20107;-91
2022/08/21 10:49:44;;;;;;;9.05;6.78;;;18.70;99.90;;;;;;5021540;28;20195;-90
2022/08/21 10:52:09;;;;;;;;;;;18.70;99.90;;;;;;4988322;28;20080;-90
2022/08/21 10:54:39;;;;;;;10.30;7.40;;;18.80;99.90;;;;;;5021828;28;19912;-88
2022/08/21 10:57:13;;;;;;;8.88;6.10;;;18.80;99.90;;;;;;5004221;28;20030;-88
2022/08/21 10:59:51;;;;;;;8.93;6.38;;;18.90;99.90;;;;;;4988407;28;20045;-88
2022/08/21 11:02:26;;;;;;;9.52;6.45;;;18.80;99.90;;;;;;5001477;28;20026;-91
2022/08/21 11:05:18;;;;;;;10.05;7.45;;;18.80;99.90;;;;;;5002008;28;20052;-89
2022/08/21 11:08:01;;;;;;;8.48;6.00;;;18.90;99.90;;;;;;5010991;28;20103;-92
2022/08/21 11:10:57;;;;;;;6.45;4.85;;;18.90;99.90;;;;;;5019449;28;20069;-92
2022/08/21 11:13:33;;;;;;;6.10;4.53;;;18.90;99.90;;;;;;5002792;28;20176;-91
2022/08/21 11:16:21;;;;;;;5.65;4.28;;;19.00;99.90;;;;;;5019326;28;20486;-90
2022/08/21 11:19:01;;;;;;;6.53;3.90;;;19.00;99.90;;;;;;5010034;28;20065;-90
2022/08/21 11:21:43;;;;;;;5.63;3.42;;;19.10;99.90;;;;;;5002238;28;20026;-91
2022/08/21 11:24:21;;;;;;;3.42;2.10;;;19.10;99.90;;;;;;5002946;28;20029;-90
2022/08/21 11:26:59;;;;;;;7.68;2.97;;;19.10;99.90;;;;;;5003235;28;20018;-89
2022/08/21 11:29:29;;;;;;;8.50;2.92;;;19.20;99.90;;;;;;5004281;28;20434;-89
2022/08/21 11:31:58;;;;;;;9.40;3.20;;;19.20;99.90;;;;;;5002539;28;20061;-87
2022/08/21 11:35:01;;;;;;;7.65;3.53;;;19.20;99.90;;;;;;5002947;28;20504;-89
2022/08/21 11:37:48;;;;;;;9.10;3.83;;;19.20;99.90;;;;;;4986339;28;20088;-89
2022/08/21 11:40:51;;;;;;;9.68;3.63;;;19.30;99.90;;;;;;5002643;28;20034;-91
2022/08/21 11:43:45;;;;;;;13.90;4.05;;;19.30;99.90;;;;;;5026176;28;20025;-89
2022/08/21 11:46:31;;;;;;;12.90;3.33;;;19.20;99.90;;;;;;5018627;28;20125;-91
2022/08/21 11:49:25;;;;;;;3.75;2.03;;;19.30;99.90;;;;;;5025407;28;20437;-91
2022/08/21 11:51:57;;;;;;;3.30;2.25;;;19.20;99.90;;;;;;5026824;28;20025;-89
2022/08/21 11:54:43;;;;;;;4.25;1.80;;;19.20;99.90;;;;;;5006105;28;20098;-89
2022/08/21 11:57:25;;;;;;;5.45;1.60;;;19.10;99.90;;;;;;5025159;28;20099;-91
2022/08/21 12:00:08;;;;;;;3.40;1.13;;;19.00;99.90;;;;;;5024845;28;20025;-90
2022/08/21 12:02:38;;;;;;;2.25;0.98;;;18.90;99.90;;;;;;5012379;28;20033;-91
2022/08/21 12:05:09;;;;;;;0.98;0.77;;;18.70;99.90;;;;;;5009515;28;20060;-87
2022/08/21 12:07:40;;;;;;;1.38;0.70;;;18.60;99.90;;;;;;5028286;28;20137;-88
2022/08/21 12:10:15;;;;;;;1.83;1.08;;;18.50;99.90;;;;;;5008823;28;20109;-89
2022/08/21 12:12:43;;;;;;;0.90;0.63;;;18.30;99.90;;;;;;5011343;28;20030;-89
2022/08/21 12:15:15;;;;;;;2.50;0.57;;;18.20;99.90;;;;;;5031009;28;20026;-91
2022/08/21 12:17:57;;;;;;;1.25;0.80;;;18.10;99.90;;;;;;5002436;28;20572;-92
2022/08/21 12:20:34;;;;;;;2.10;0.90;;;18.10;99.90;;;;;;5021492;28;20070;-92
2022/08/21 12:23:02;;;;;;;3.22;0.90;;;17.90;99.90;;;;;;5021841;28;20057;-94
2022/08/21 12:25:39;;;;;;;3.35;1.08;;;17.90;99.90;;;;;;5004585;28;20030;-92
2022/08/21 12:28:11;;;;;;;2.65;1.10;;;17.80;99.90;;;;;;5004814;28;20125;-91
2022/08/21 12:30:41;;;;;;;2.63;1.63;;;17.80;99.90;;;;;;5009023;28;20042;-94
2022/08/21 12:33:31;;;;;;;2.17;1.38;;;17.80;99.90;;;;;;5011494;28;20060;-93
2022/08/21 12:36:12;;;;;;;3.47;1.80;;;17.70;99.90;;;;;;5011667;28;20026;-93
2022/08/21 12:39:00;;;;;;;3.08;1.67;;;17.70;99.90;;;;;;5000817;28;20041;-92
2022/08/21 12:41:43;;;;;;;4.88;2.47;;;17.60;99.90;;;;;;5014201;28;20032;-93
2022/08/21 12:44:20;;;;;;;3.92;2.00;;;17.60;99.90;;;;;;5010521;28;20035;-94
2022/08/21 12:46:51;;;;;;;7.20;2.92;;;17.50;99.90;;;;;;5023522;28;20053;-92
2022/08/21 12:49:37;;;;;;;8.13;3.22;;;17.50;99.90;;;;;;5020520;28;20030;-96
2022/08/21 12:52:29;;;;;;;8.98;4.10;;;17.50;99.90;;;;;;5006834;28;21096;-94
2022/08/21 12:54:55;;;;;;;13.45;5.45;;;17.50;99.90;;;;;;5022214;28;20027;-94
2022/08/21 12:57:24;;;;;;;14.05;4.93;;;17.50;99.90;;;;;;5023498;28;20050;-96